Sinajana, Guam
Current Conditions -  °F | °C
As of 10:54 AM on Saturday 25 Oct 2014 (Local Time) from PGUM Reporting Station
Few Clouds Few Clouds  
Wind Chill: 88°   Ceiling: Unl
Heat Index: 99°   Visibility: 10mi
Dew Point: 76°   Wind: 9mph
Humidity: 67%   Direction: 70°ENE
Pressure: 29.92"   Gusts: NA
Location:  13.46°N, 144.75°E
Report Text: PGUM 250054Z 07008KT 10SM FEW022 31/24 A2992 RMK AO2 SLP123 P0001 T03110244 $
Loading
Personal Weather Stations






























Interactive Weather Map
Tropical Storm Tracking
New forecast layout! Learn more

10-Day Weather Forecast

Advertisements
Track Severe Weather on mobile